TimeCDT,TemperatureF,Dew PointF,Humidity,Sea Level PressureIn,VisibilityMPH,Wind Direction,Wind SpeedMPH,Gust SpeedMPH,PrecipitationIn,Events,Conditions,WindDirDegrees,DateUTC
12:21 AM,70.2,69.4,98,29.95,4.0,Calm,Calm,-,N/A,,Clear,0,2013-08-28 05:21:00
12:36 AM,69.8,69.3,98,29.95,4.0,Calm,Calm,-,N/A,,Clear,0,2013-08-28 05:36:00
12:56 AM,69.1,68.5,98,29.95,3.0,Calm,Calm,-,N/A,,Clear,0,2013-08-28 05:56:00
1:16 AM,68.0,67.5,98,29.95,2.5,Calm,Calm,-,N/A,,Clear,0,2013-08-28 06:16:00
1:56 AM,68.4,68.0,99,29.95,2.0,Calm,Calm,-,N/A,,Clear,0,2013-08-28 06:56:00
2:16 AM,68.2,68.0,99,29.95,7.0,Calm,Calm,-,N/A,,Clear,0,2013-08-28 07:16:00
2:36 AM,69.8,69.4,99,29.95,5.0,Calm,Calm,-,N/A,,Clear,0,2013-08-28 07:36:00
2:56 AM,69.1,68.7,99,29.95,0.8,Calm,Calm,-,N/A,,Mist,0,2013-08-28 07:56:00
3:16 AM,68.4,68.0,99,29.95,1.0,Calm,Calm,-,N/A,,Mist,0,2013-08-28 08:16:00
3:36 AM,68.7,68.2,98,29.95,1.0,Calm,Calm,-,N/A,,Mist,0,2013-08-28 08:36:00
3:56 AM,67.5,67.1,99,29.95,0.8,Calm,Calm,-,N/A,,Mist,0,2013-08-28 08:56:00
4:16 AM,69.3,69.1,99,29.96,0.5,Calm,Calm,-,N/A,Fog,Fog,0,2013-08-28 09:16:00
4:36 AM,66.6,66.4,99,29.97,0.2,Calm,Calm,-,N/A,Fog,Fog,0,2013-08-28 09:36:00
4:56 AM,67.6,67.5,99,29.97,1.0,Calm,Calm,-,N/A,,Mist,0,2013-08-28 09:56:00
5:16 AM,66.0,65.8,99,29.97,0.5,Calm,Calm,-,N/A,Fog,Fog,0,2013-08-28 10:16:00
5:36 AM,66.7,66.6,99,29.97,0.5,Calm,Calm,-,N/A,Fog,Fog,0,2013-08-28 10:36:00
5:56 AM,68.2,68.0,99,29.98,5.0,Calm,Calm,-,N/A,,Clear,0,2013-08-28 10:56:00
6:16 AM,67.3,67.1,99,29.98,1.2,Calm,Calm,-,N/A,,Mist,0,2013-08-28 11:16:00
6:36 AM,67.5,67.5,100,29.98,4.0,Calm,Calm,-,N/A,,Clear,0,2013-08-28 11:36:00
6:56 AM,68.0,67.8,99,29.99,5.0,Calm,Calm,-,N/A,,Clear,0,2013-08-28 11:56:00
7:16 AM,68.9,68.5,99,29.99,5.0,Calm,Calm,-,N/A,,Clear,0,2013-08-28 12:16:00
7:36 AM,69.3,69.1,99,30.00,7.0,Calm,Calm,-,N/A,,Clear,0,2013-08-28 12:36:00
7:56 AM,69.4,69.3,99,30.00,10.0,Calm,Calm,-,N/A,,Clear,0,2013-08-28 12:56:00
8:16 AM,69.8,69.4,99,30.00,7.0,Calm,Calm,-,N/A,,Clear,0,2013-08-28 13:16:00
8:36 AM,71.2,71.1,99,30.01,10.0,Calm,Calm,-,N/A,,Clear,0,2013-08-28 13:36:00
8:56 AM,72.5,72.3,99,30.02,10.0,Calm,Calm,-,N/A,,Clear,0,2013-08-28 13:56:00
9:16 AM,72.7,72.3,99,30.02,10.0,Calm,Calm,-,N/A,,Clear,0,2013-08-28 14:16:00
9:36 AM,75.6,72.9,91,30.03,10.0,Calm,Calm,-,N/A,,Clear,0,2013-08-28 14:36:00
9:56 AM,77.7,72.3,83,30.02,10.0,ENE,3.5,-,N/A,,Clear,70,2013-08-28 14:56:00
10:16 AM,79.7,73.0,80,30.03,10.0,East,3.5,-,N/A,,Clear,90,2013-08-28 15:16:00
10:36 AM,81.5,73.9,78,30.03,10.0,East,3.5,-,N/A,,Clear,80,2013-08-28 15:36:00
10:56 AM,83.3,74.5,75,30.04,10.0,East,4.6,-,N/A,,Clear,100,2013-08-28 15:56:00
11:16 AM,82.8,74.3,75,30.04,10.0,East,4.6,-,N/A,,Clear,100,2013-08-28 16:16:00
11:36 AM,82.6,74.3,76,30.04,10.0,East,5.8,-,N/A,,Clear,90,2013-08-28 16:36:00
11:56 AM,83.8,74.5,73,30.03,10.0,East,4.6,-,N/A,,Clear,100,2013-08-28 16:56:00
12:16 PM,85.8,74.7,69,30.03,10.0,East,3.5,-,N/A,,Clear,80,2013-08-28 17:16:00
12:35 PM,84.6,73.6,69,30.04,10.0,Calm,Calm,-,N/A,,Scattered Clouds,0,2013-08-28 17:35:00
12:56 PM,85.6,73.6,67,30.03,10.0,Calm,Calm,-,N/A,,Clear,0,2013-08-28 17:56:00
1:16 PM,84.4,74.1,71,30.04,10.0,Calm,Calm,-,N/A,,Clear,0,2013-08-28 18:16:00
1:36 PM,85.6,73.6,67,30.04,10.0,Calm,Calm,-,N/A,,Clear,0,2013-08-28 18:36:00
1:56 PM,86.0,73.8,67,30.02,10.0,ESE,3.5,-,N/A,,Clear,120,2013-08-28 18:56:00
2:16 PM,86.0,73.2,65,30.02,10.0,Calm,Calm,-,N/A,,Clear,0,2013-08-28 19:16:00
2:36 PM,86.5,74.1,66,30.02,10.0,ESE,3.5,-,N/A,,Clear,120,2013-08-28 19:36:00
2:56 PM,85.1,73.6,68,30.02,10.0,Calm,Calm,-,N/A,,Clear,0,2013-08-28 19:56:00
3:16 PM,83.8,74.5,73,30.00,10.0,East,3.5,-,N/A,,Scattered Clouds,100,2013-08-28 20:16:00
3:36 PM,83.3,73.8,73,29.98,10.0,ESE,4.6,-,N/A,,Clear,120,2013-08-28 20:36:00
3:56 PM,82.8,73.6,74,29.99,10.0,Calm,Calm,-,N/A,,Clear,0,2013-08-28 20:56:00
4:16 PM,81.7,75.0,80,30.00,10.0,Calm,Calm,-,N/A,,Clear,0,2013-08-28 21:16:00
4:36 PM,81.9,73.9,77,30.00,10.0,Calm,Calm,-,N/A,,Scattered Clouds,0,2013-08-28 21:36:00
4:56 PM,82.9,76.1,80,30.00,10.0,North,3.5,-,N/A,,Scattered Clouds,360,2013-08-28 21:56:00
5:16 PM,83.8,74.5,73,30.00,10.0,ENE,3.5,-,N/A,,Clear,70,2013-08-28 22:16:00
5:36 PM,84.2,73.0,69,30.00,10.0,East,5.8,-,N/A,,Clear,80,2013-08-28 22:36:00
5:55 PM,83.5,71.6,67,30.00,10.0,East,5.8,-,N/A,,Clear,90,2013-08-28 22:55:00
6:16 PM,83.1,70.3,65,30.00,10.0,East,3.5,-,N/A,,Clear,100,2013-08-28 23:16:00
6:36 PM,83.7,71.2,66,30.00,10.0,East,3.5,-,N/A,,Clear,100,2013-08-28 23:36:00
6:56 PM,83.3,70.9,66,30.00,10.0,Calm,Calm,-,N/A,,Clear,0,2013-08-28 23:56:00
7:16 PM,82.0,71.1,69,30.00,10.0,Calm,Calm,-,N/A,,Clear,0,2013-08-29 00:16:00
7:36 PM,80.4,70.7,72,30.00,10.0,Calm,Calm,-,N/A,,Scattered Clouds,0,2013-08-29 00:36:00
7:56 PM,78.1,71.1,79,30.01,10.0,Calm,Calm,-,N/A,,Scattered Clouds,0,2013-08-29 00:56:00
8:16 PM,78.4,70.5,77,30.00,10.0,Calm,Calm,-,N/A,,Scattered Clouds,0,2013-08-29 01:16:00
8:36 PM,77.0,70.3,80,30.01,10.0,Calm,Calm,-,N/A,,Clear,0,2013-08-29 01:36:00
8:56 PM,76.1,69.4,80,30.01,10.0,East,3.5,-,N/A,,Clear,80,2013-08-29 01:56:00
9:16 PM,75.7,69.4,81,30.01,10.0,Calm,Calm,-,N/A,,Clear,0,2013-08-29 02:16:00
9:36 PM,73.8,69.6,87,30.02,10.0,Calm,Calm,-,N/A,,Clear,0,2013-08-29 02:36:00
9:56 PM,75.2,70.0,84,30.01,10.0,Calm,Calm,-,N/A,,Clear,0,2013-08-29 02:56:00
10:16 PM,73.2,69.8,89,30.02,10.0,Calm,Calm,-,N/A,,Clear,0,2013-08-29 03:16:00
10:36 PM,72.5,70.2,92,30.02,10.0,Calm,Calm,-,N/A,,Clear,0,2013-08-29 03:36:00
10:56 PM,71.8,69.1,91,30.01,10.0,Calm,Calm,-,N/A,,Clear,0,2013-08-29 03:56:00
11:16 PM,71.6,69.8,94,30.01,10.0,Calm,Calm,-,N/A,,Clear,0,2013-08-29 04:16:00
11:36 PM,72.9,70.2,91,30.01,10.0,Calm,Calm,-,N/A,,Clear,0,2013-08-29 04:36:00
11:56 PM,74.3,70.9,89,30.02,10.0,Calm,Calm,-,N/A,,Clear,0,2013-08-29 04:56:00